sensor_id;sensor_type;location;lat;lon;timestamp;pressure;altitude;pressure_sealevel;temperature;humidity
17521;BME280;8878;-33.370;-70.552;2023-02-17T00:01:37;91859.78;;;26.06;34.97
17521;BME280;8878;-33.370;-70.552;2023-02-17T00:04:06;91863.09;;;25.40;35.47
17521;BME280;8878;-33.370;-70.552;2023-02-17T00:06:37;91866.31;;;25.49;35.46
17521;BME280;8878;-33.370;-70.552;2023-02-17T00:09:06;91867.28;;;25.90;35.47
17521;BME280;8878;-33.370;-70.552;2023-02-17T00:11:36;91865.56;;;26.08;35.38
17521;BME280;8878;-33.370;-70.552;2023-02-17T00:14:05;91870.16;;;26.04;35.40
17521;BME280;8878;-33.370;-70.552;2023-02-17T00:16:35;91872.84;;;26.00;35.28
17521;BME280;8878;-33.370;-70.552;2023-02-17T00:19:04;91871.66;;;26.01;34.96
17521;BME280;8878;-33.370;-70.552;2023-02-17T00:21:51;91862.41;;;26.02;35.56
17521;BME280;8878;-33.370;-70.552;2023-02-17T00:24:20;91864.13;;;26.14;35.09
17521;BME280;8878;-33.370;-70.552;2023-02-17T00:26:50;91873.94;;;26.26;35.37
17521;BME280;8878;-33.370;-70.552;2023-02-17T00:29:19;91882.84;;;26.26;34.68
17521;BME280;8878;-33.370;-70.552;2023-02-17T00:31:48;91878.13;;;26.23;35.29
17521;BME280;8878;-33.370;-70.552;2023-02-17T00:34:20;91874.09;;;26.10;36.03
17521;BME280;8878;-33.370;-70.552;2023-02-17T00:36:51;91876.00;;;26.06;35.94
17521;BME280;8878;-33.370;-70.552;2023-02-17T00:39:20;91883.69;;;26.04;36.25
17521;BME280;8878;-33.370;-70.552;2023-02-17T00:41:49;91875.75;;;25.88;37.04
17521;BME280;8878;-33.370;-70.552;2023-02-17T00:44:20;91882.53;;;25.75;36.23
17521;BME280;8878;-33.370;-70.552;2023-02-17T00:46:50;91882.09;;;25.47;35.80
17521;BME280;8878;-33.370;-70.552;2023-02-17T00:49:21;91885.91;;;25.68;36.44
17521;BME280;8878;-33.370;-70.552;2023-02-17T00:51:53;91883.34;;;25.79;36.66
17521;BME280;8878;-33.370;-70.552;2023-02-17T00:54:22;91882.69;;;25.59;36.62
17521;BME280;8878;-33.370;-70.552;2023-02-17T00:56:51;91875.81;;;25.39;36.66
17521;BME280;8878;-33.370;-70.552;2023-02-17T00:59:51;91882.34;;;25.38;37.90
17521;BME280;8878;-33.370;-70.552;2023-02-17T01:02:20;91884.59;;;25.32;38.16
17521;BME280;8878;-33.370;-70.552;2023-02-17T01:04:50;91887.53;;;25.24;38.07
17521;BME280;8878;-33.370;-70.552;2023-02-17T01:07:21;91888.75;;;25.26;38.93
17521;BME280;8878;-33.370;-70.552;2023-02-17T01:09:50;91896.06;;;25.26;38.65
17521;BME280;8878;-33.370;-70.552;2023-02-17T01:12:19;91887.63;;;25.31;37.96
17521;BME280;8878;-33.370;-70.552;2023-02-17T01:14:50;91895.69;;;25.27;38.50
17521;BME280;8878;-33.370;-70.552;2023-02-17T01:17:19;91892.94;;;25.24;39.25
17521;BME280;8878;-33.370;-70.552;2023-02-17T01:19:49;91891.53;;;25.07;40.11
17521;BME280;8878;-33.370;-70.552;2023-02-17T01:22:18;91888.72;;;25.00;40.05
17521;BME280;8878;-33.370;-70.552;2023-02-17T01:24:49;91893.72;;;25.02;39.49
17521;BME280;8878;-33.370;-70.552;2023-02-17T01:27:18;91897.41;;;24.90;40.16
17521;BME280;8878;-33.370;-70.552;2023-02-17T01:29:48;91895.03;;;24.88;39.73
17521;BME280;8878;-33.370;-70.552;2023-02-17T01:32:17;91894.63;;;24.86;39.85
17521;BME280;8878;-33.370;-70.552;2023-02-17T01:34:46;91884.59;;;24.64;40.66
17521;BME280;8878;-33.370;-70.552;2023-02-17T01:37:16;91891.47;;;24.62;41.06
17521;BME280;8878;-33.370;-70.552;2023-02-17T01:39:45;91886.31;;;24.53;40.83
17521;BME280;8878;-33.370;-70.552;2023-02-17T01:42:17;91886.47;;;24.41;41.51
17521;BME280;8878;-33.370;-70.552;2023-02-17T01:47:55;91883.34;;;24.39;41.29
17521;BME280;8878;-33.370;-70.552;2023-02-17T01:50:31;91877.38;;;24.49;40.51
17521;BME280;8878;-33.370;-70.552;2023-02-17T01:53:02;91881.69;;;24.53;40.01
17521;BME280;8878;-33.370;-70.552;2023-02-17T01:55:33;91880.28;;;24.40;40.49
17521;BME280;8878;-33.370;-70.552;2023-02-17T01:58:07;91877.09;;;24.35;40.04
17521;BME280;8878;-33.370;-70.552;2023-02-17T02:00:40;91875.75;;;24.25;39.64
17521;BME280;8878;-33.370;-70.552;2023-02-17T02:03:12;91881.44;;;24.20;41.35
17521;BME280;8878;-33.370;-70.552;2023-02-17T02:05:42;91881.50;;;24.24;41.20
17521;BME280;8878;-33.370;-70.552;2023-02-17T02:08:13;91886.53;;;24.06;42.24
17521;BME280;8878;-33.370;-70.552;2023-02-17T02:10:43;91879.09;;;23.99;42.26
17521;BME280;8878;-33.370;-70.552;2023-02-17T02:13:14;91887.38;;;23.91;42.16
17521;BME280;8878;-33.370;-70.552;2023-02-17T02:15:48;91889.50;;;24.01;42.69
17521;BME280;8878;-33.370;-70.552;2023-02-17T02:18:32;91889.66;;;24.08;42.30
17521;BME280;8878;-33.370;-70.552;2023-02-17T02:24:32;91895.59;;;23.98;41.65
17521;BME280;8878;-33.370;-70.552;2023-02-17T02:27:28;91900.34;;;23.85;41.42
17521;BME280;8878;-33.370;-70.552;2023-02-17T02:33:12;91907.81;;;23.57;41.61
17521;BME280;8878;-33.370;-70.552;2023-02-17T02:35:49;91906.97;;;23.21;41.49
17521;BME280;8878;-33.370;-70.552;2023-02-17T02:38:27;91908.66;;;23.45;42.34
17521;BME280;8878;-33.370;-70.552;2023-02-17T02:41:03;91913.63;;;23.43;41.92
17521;BME280;8878;-33.370;-70.552;2023-02-17T02:43:34;91915.53;;;23.58;41.32
17521;BME280;8878;-33.370;-70.552;2023-02-17T02:46:04;91917.00;;;23.56;41.83
17521;BME280;8878;-33.370;-70.552;2023-02-17T02:48:35;91915.59;;;23.62;41.70
17521;BME280;8878;-33.370;-70.552;2023-02-17T02:51:32;91911.44;;;23.64;42.24
17521;BME280;8878;-33.370;-70.552;2023-02-17T02:54:26;91905.44;;;23.71;42.05
17521;BME280;8878;-33.370;-70.552;2023-02-17T02:57:14;91908.66;;;23.61;43.33
17521;BME280;8878;-33.370;-70.552;2023-02-17T02:59:56;91913.34;;;23.64;42.70
17521;BME280;8878;-33.370;-70.552;2023-02-17T03:02:31;91915.75;;;23.69;41.88
17521;BME280;8878;-33.370;-70.552;2023-02-17T03:05:11;91910.78;;;23.52;43.47
17521;BME280;8878;-33.370;-70.552;2023-02-17T03:07:47;91910.94;;;23.43;43.64
17521;BME280;8878;-33.370;-70.552;2023-02-17T03:10:20;91902.41;;;23.41;43.66
17521;BME280;8878;-33.370;-70.552;2023-02-17T03:12:50;91898.59;;;23.42;44.25
17521;BME280;8878;-33.370;-70.552;2023-02-17T03:15:22;91900.41;;;23.38;43.40
17521;BME280;8878;-33.370;-70.552;2023-02-17T03:17:56;91909.81;;;23.28;43.94
17521;BME280;8878;-33.370;-70.552;2023-02-17T03:20:29;91908.16;;;23.24;44.41
17521;BME280;8878;-33.370;-70.552;2023-02-17T03:23:01;91897.59;;;23.15;44.08
17521;BME280;8878;-33.370;-70.552;2023-02-17T03:25:31;91903.06;;;23.19;44.08
17521;BME280;8878;-33.370;-70.552;2023-02-17T03:28:01;91894.19;;;23.02;44.65
17521;BME280;8878;-33.370;-70.552;2023-02-17T03:30:30;91896.09;;;23.02;44.25
17521;BME280;8878;-33.370;-70.552;2023-02-17T03:32:59;91898.03;;;23.01;44.61
17521;BME280;8878;-33.370;-70.552;2023-02-17T03:35:30;91899.69;;;23.06;44.61
17521;BME280;8878;-33.370;-70.552;2023-02-17T03:38:01;91903.22;;;23.10;44.39
17521;BME280;8878;-33.370;-70.552;2023-02-17T03:40:30;91891.16;;;23.04;44.92
17521;BME280;8878;-33.370;-70.552;2023-02-17T03:42:59;91899.16;;;22.85;45.93
17521;BME280;8878;-33.370;-70.552;2023-02-17T03:45:28;91891.50;;;22.71;46.54
17521;BME280;8878;-33.370;-70.552;2023-02-17T03:47:58;91896.78;;;22.67;46.80
17521;BME280;8878;-33.370;-70.552;2023-02-17T03:50:27;91891.16;;;22.73;46.98
17521;BME280;8878;-33.370;-70.552;2023-02-17T03:52:58;91898.00;;;22.70;46.29
17521;BME280;8878;-33.370;-70.552;2023-02-17T03:55:27;91888.47;;;22.73;45.27
17521;BME280;8878;-33.370;-70.552;2023-02-17T03:57:56;91890.09;;;22.61;44.49
17521;BME280;8878;-33.370;-70.552;2023-02-17T04:00:26;91891.28;;;22.48;44.38
17521;BME280;8878;-33.370;-70.552;2023-02-17T04:03:04;91890.53;;;22.63;44.99
17521;BME280;8878;-33.370;-70.552;2023-02-17T04:05:33;91884.72;;;22.61;45.62
17521;BME280;8878;-33.370;-70.552;2023-02-17T04:08:04;91890.25;;;22.69;45.37
17521;BME280;8878;-33.370;-70.552;2023-02-17T04:10:34;91880.63;;;22.67;45.82
17521;BME280;8878;-33.370;-70.552;2023-02-17T04:13:03;91891.16;;;22.73;44.77
17521;BME280;8878;-33.370;-70.552;2023-02-17T04:15:32;91881.75;;;22.66;45.50
17521;BME280;8878;-33.370;-70.552;2023-02-17T04:18:02;91874.91;;;22.69;44.70
17521;BME280;8878;-33.370;-70.552;2023-02-17T04:20:31;91880.28;;;22.69;45.29
17521;BME280;8878;-33.370;-70.552;2023-02-17T04:23:00;91884.97;;;22.56;47.58
17521;BME280;8878;-33.370;-70.552;2023-02-17T04:25:33;91877.06;;;22.48;47.12
17521;BME280;8878;-33.370;-70.552;2023-02-17T04:28:02;91881.41;;;22.52;47.32
17521;BME280;8878;-33.370;-70.552;2023-02-17T04:30:32;91875.16;;;22.48;47.25
17521;BME280;8878;-33.370;-70.552;2023-02-17T04:33:01;91870.25;;;22.66;46.41
17521;BME280;8878;-33.370;-70.552;2023-02-17T04:35:31;91871.97;;;22.58;45.69
17521;BME280;8878;-33.370;-70.552;2023-02-17T04:38:01;91873.44;;;22.56;45.79
17521;BME280;8878;-33.370;-70.552;2023-02-17T04:40:32;91874.72;;;22.46;46.58
17521;BME280;8878;-33.370;-70.552;2023-02-17T04:43:01;91870.97;;;22.35;47.56
17521;BME280;8878;-33.370;-70.552;2023-02-17T04:45:32;91871.47;;;22.25;47.85
17521;BME280;8878;-33.370;-70.552;2023-02-17T04:48:02;91866.84;;;22.10;47.70
17521;BME280;8878;-33.370;-70.552;2023-02-17T04:50:31;91871.00;;;22.07;48.22
17521;BME280;8878;-33.370;-70.552;2023-02-17T04:53:01;91863.47;;;22.13;48.09
17521;BME280;8878;-33.370;-70.552;2023-02-17T04:55:32;91860.59;;;22.06;48.04
17521;BME280;8878;-33.370;-70.552;2023-02-17T04:58:01;91857.25;;;22.09;47.76
17521;BME280;8878;-33.370;-70.552;2023-02-17T05:00:31;91863.72;;;22.08;47.44
17521;BME280;8878;-33.370;-70.552;2023-02-17T05:03:00;91862.66;;;21.97;48.24
17521;BME280;8878;-33.370;-70.552;2023-02-17T05:05:30;91861.41;;;21.94;48.03
17521;BME280;8878;-33.370;-70.552;2023-02-17T05:07:59;91855.25;;;21.94;48.07
17521;BME280;8878;-33.370;-70.552;2023-02-17T05:10:28;91856.63;;;21.87;48.18
17521;BME280;8878;-33.370;-70.552;2023-02-17T05:12:59;91850.47;;;21.87;48.38
17521;BME280;8878;-33.370;-70.552;2023-02-17T05:15:28;91851.78;;;21.93;47.75
17521;BME280;8878;-33.370;-70.552;2023-02-17T05:17:59;91851.47;;;21.82;47.90
17521;BME280;8878;-33.370;-70.552;2023-02-17T05:20:28;91841.56;;;21.71;49.03
17521;BME280;8878;-33.370;-70.552;2023-02-17T05:22:57;91843.22;;;21.75;49.10
17521;BME280;8878;-33.370;-70.552;2023-02-17T05:25:27;91845.09;;;21.87;48.61
17521;BME280;8878;-33.370;-70.552;2023-02-17T05:27:58;91845.19;;;21.91;48.48
17521;BME280;8878;-33.370;-70.552;2023-02-17T05:30:28;91837.47;;;21.89;47.85
17521;BME280;8878;-33.370;-70.552;2023-02-17T05:32:57;91838.22;;;21.74;48.51
17521;BME280;8878;-33.370;-70.552;2023-02-17T05:35:26;91837.81;;;21.60;49.43
17521;BME280;8878;-33.370;-70.552;2023-02-17T05:37:56;91831.88;;;21.54;49.44
17521;BME280;8878;-33.370;-70.552;2023-02-17T05:40:25;91828.97;;;21.59;49.24
17521;BME280;8878;-33.370;-70.552;2023-02-17T05:42:55;91821.66;;;21.72;48.81
17521;BME280;8878;-33.370;-70.552;2023-02-17T05:45:26;91820.53;;;21.73;48.73
17521;BME280;8878;-33.370;-70.552;2023-02-17T05:47:55;91816.03;;;21.77;48.12
17521;BME280;8878;-33.370;-70.552;2023-02-17T05:50:25;91813.16;;;21.70;48.78
17521;BME280;8878;-33.370;-70.552;2023-02-17T05:52:54;91810.59;;;21.73;48.10
17521;BME280;8878;-33.370;-70.552;2023-02-17T05:55:23;91800.97;;;21.72;47.87
17521;BME280;8878;-33.370;-70.552;2023-02-17T05:57:53;91805.22;;;21.73;48.20
17521;BME280;8878;-33.370;-70.552;2023-02-17T06:00:24;91799.41;;;21.71;48.13
17521;BME280;8878;-33.370;-70.552;2023-02-17T06:02:53;91796.78;;;21.59;48.87
17521;BME280;8878;-33.370;-70.552;2023-02-17T06:05:22;91794.09;;;21.47;49.65
17521;BME280;8878;-33.370;-70.552;2023-02-17T06:07:52;91797.63;;;21.35;50.62
17521;BME280;8878;-33.370;-70.552;2023-02-17T06:10:21;91794.28;;;21.26;49.68
17521;BME280;8878;-33.370;-70.552;2023-02-17T06:12:50;91791.28;;;21.16;49.68
17521;BME280;8878;-33.370;-70.552;2023-02-17T06:15:20;91787.34;;;21.25;49.21
17521;BME280;8878;-33.370;-70.552;2023-02-17T06:17:51;91789.81;;;21.30;49.88
17521;BME280;8878;-33.370;-70.552;2023-02-17T06:20:20;91780.16;;;21.41;49.06
17521;BME280;8878;-33.370;-70.552;2023-02-17T06:22:50;91771.78;;;21.43;48.35
17521;BME280;8878;-33.370;-70.552;2023-02-17T06:25:19;91779.47;;;20.92;48.51
17521;BME280;8878;-33.370;-70.552;2023-02-17T06:27:48;91766.38;;;20.91;48.63
17521;BME280;8878;-33.370;-70.552;2023-02-17T06:30:18;91763.00;;;21.06;49.12
17521;BME280;8878;-33.370;-70.552;2023-02-17T06:32:50;91767.03;;;21.24;48.60
17521;BME280;8878;-33.370;-70.552;2023-02-17T06:35:19;91756.84;;;21.18;48.83
17521;BME280;8878;-33.370;-70.552;2023-02-17T06:37:49;91760.19;;;21.15;48.87
17521;BME280;8878;-33.370;-70.552;2023-02-17T06:40:19;91755.28;;;21.04;49.73
17521;BME280;8878;-33.370;-70.552;2023-02-17T06:42:48;91752.28;;;21.18;50.05
17521;BME280;8878;-33.370;-70.552;2023-02-17T06:45:17;91745.78;;;21.19;49.73
17521;BME280;8878;-33.370;-70.552;2023-02-17T06:47:47;91744.34;;;21.22;50.72
17521;BME280;8878;-33.370;-70.552;2023-02-17T06:50:18;91744.69;;;21.08;51.42
17521;BME280;8878;-33.370;-70.552;2023-02-17T06:52:47;91742.25;;;21.03;51.95
17521;BME280;8878;-33.370;-70.552;2023-02-17T06:55:17;91744.81;;;20.99;50.99
17521;BME280;8878;-33.370;-70.552;2023-02-17T06:57:46;91744.28;;;20.94;50.30
17521;BME280;8878;-33.370;-70.552;2023-02-17T07:00:16;91732.31;;;20.91;51.06
17521;BME280;8878;-33.370;-70.552;2023-02-17T07:02:45;91729.09;;;20.86;51.32
17521;BME280;8878;-33.370;-70.552;2023-02-17T07:05:16;91741.03;;;20.88;51.73
17521;BME280;8878;-33.370;-70.552;2023-02-17T07:07:45;91738.78;;;20.90;51.44
17521;BME280;8878;-33.370;-70.552;2023-02-17T07:10:15;91735.91;;;20.95;50.56
17521;BME280;8878;-33.370;-70.552;2023-02-17T07:12:45;91735.03;;;20.79;50.01
17521;BME280;8878;-33.370;-70.552;2023-02-17T07:15:14;91740.84;;;20.81;50.35
17521;BME280;8878;-33.370;-70.552;2023-02-17T07:17:44;91748.44;;;20.79;51.01
17521;BME280;8878;-33.370;-70.552;2023-02-17T07:20:13;91734.91;;;20.88;50.71
17521;BME280;8878;-33.370;-70.552;2023-02-17T07:22:44;91734.22;;;20.91;50.99
17521;BME280;8878;-33.370;-70.552;2023-02-17T07:25:13;91732.31;;;20.91;51.12
17521;BME280;8878;-33.370;-70.552;2023-02-17T07:27:43;91735.13;;;20.83;49.91
17521;BME280;8878;-33.370;-70.552;2023-02-17T07:30:14;91729.56;;;20.39;49.48
17521;BME280;8878;-33.370;-70.552;2023-02-17T07:32:43;91733.47;;;20.29;49.42
17521;BME280;8878;-33.370;-70.552;2023-02-17T07:35:13;91739.06;;;20.37;49.07
17521;BME280;8878;-33.370;-70.552;2023-02-17T07:37:44;91733.13;;;20.67;50.55
17521;BME280;8878;-33.370;-70.552;2023-02-17T07:40:13;91728.78;;;20.63;51.87
17521;BME280;8878;-33.370;-70.552;2023-02-17T07:42:42;91737.72;;;20.55;51.71
17521;BME280;8878;-33.370;-70.552;2023-02-17T07:45:12;91739.50;;;20.63;51.01
17521;BME280;8878;-33.370;-70.552;2023-02-17T07:47:41;91734.56;;;20.77;50.37
17521;BME280;8878;-33.370;-70.552;2023-02-17T07:50:11;91735.25;;;20.62;49.91
17521;BME280;8878;-33.370;-70.552;2023-02-17T07:52:40;91732.00;;;20.68;50.13
17521;BME280;8878;-33.370;-70.552;2023-02-17T07:55:11;91732.38;;;20.67;50.87
17521;BME280;8878;-33.370;-70.552;2023-02-17T07:57:41;91726.66;;;20.68;50.70
17521;BME280;8878;-33.370;-70.552;2023-02-17T08:00:11;91735.25;;;20.62;50.81
17521;BME280;8878;-33.370;-70.552;2023-02-17T08:02:40;91741.19;;;20.43;50.70
17521;BME280;8878;-33.370;-70.552;2023-02-17T08:05:10;91736.38;;;20.49;50.72
17521;BME280;8878;-33.370;-70.552;2023-02-17T08:07:39;91739.41;;;20.59;50.35
17521;BME280;8878;-33.370;-70.552;2023-02-17T08:10:12;91740.63;;;20.62;50.62
17521;BME280;8878;-33.370;-70.552;2023-02-17T08:12:58;91745.44;;;20.56;50.89
17521;BME280;8878;-33.370;-70.552;2023-02-17T08:15:44;91745.31;;;20.41;51.29
17521;BME280;8878;-33.370;-70.552;2023-02-17T08:18:13;91745.50;;;20.11;50.98
17521;BME280;8878;-33.370;-70.552;2023-02-17T08:20:43;91745.25;;;20.04;51.50
17521;BME280;8878;-33.370;-70.552;2023-02-17T08:23:12;91739.47;;;20.14;51.13
17521;BME280;8878;-33.370;-70.552;2023-02-17T08:25:43;91741.63;;;20.33;50.65
17521;BME280;8878;-33.370;-70.552;2023-02-17T08:28:13;91739.53;;;20.39;50.82
17521;BME280;8878;-33.370;-70.552;2023-02-17T08:30:43;91738.75;;;20.38;50.84
17521;BME280;8878;-33.370;-70.552;2023-02-17T08:33:12;91743.28;;;20.25;51.46
17521;BME280;8878;-33.370;-70.552;2023-02-17T08:35:45;91739.72;;;20.21;50.83
17521;BME280;8878;-33.370;-70.552;2023-02-17T08:38:15;91744.06;;;20.26;51.51
17521;BME280;8878;-33.370;-70.552;2023-02-17T08:40:46;91742.75;;;20.44;50.88
17521;BME280;8878;-33.370;-70.552;2023-02-17T08:43:15;91739.47;;;20.14;51.16
17521;BME280;8878;-33.370;-70.552;2023-02-17T08:45:44;91749.53;;;20.29;52.12
17521;BME280;8878;-33.370;-70.552;2023-02-17T08:48:14;91743.75;;;20.40;52.49
17521;BME280;8878;-33.370;-70.552;2023-02-17T08:50:46;91740.19;;;20.36;51.97
17521;BME280;8878;-33.370;-70.552;2023-02-17T08:53:16;91750.25;;;20.39;53.31
17521;BME280;8878;-33.370;-70.552;2023-02-17T08:55:47;91743.41;;;20.29;53.00
17521;BME280;8878;-33.370;-70.552;2023-02-17T08:58:16;91749.47;;;20.38;52.20
17521;BME280;8878;-33.370;-70.552;2023-02-17T09:00:45;91755.16;;;20.37;51.25
17521;BME280;8878;-33.370;-70.552;2023-02-17T09:03:15;91749.47;;;20.38;51.19
17521;BME280;8878;-33.370;-70.552;2023-02-17T09:05:44;91749.56;;;20.42;51.95
17521;BME280;8878;-33.370;-70.552;2023-02-17T09:08:14;91751.34;;;20.50;51.63
17521;BME280;8878;-33.370;-70.552;2023-02-17T09:10:43;91754.03;;;20.38;51.84
17521;BME280;8878;-33.370;-70.552;2023-02-17T09:13:14;91763.09;;;20.45;51.29
17521;BME280;8878;-33.370;-70.552;2023-02-17T09:15:44;91759.91;;;20.19;50.97
17521;BME280;8878;-33.370;-70.552;2023-02-17T09:18:13;91754.91;;;20.17;50.79
17521;BME280;8878;-33.370;-70.552;2023-02-17T09:20:43;91745.06;;;20.21;51.34
17521;BME280;8878;-33.370;-70.552;2023-02-17T09:23:12;91757.91;;;20.28;51.55
17521;BME280;8878;-33.370;-70.552;2023-02-17T09:25:42;91749.53;;;20.17;51.95
17521;BME280;8878;-33.370;-70.552;2023-02-17T09:28:13;91747.75;;;20.21;51.94
17521;BME280;8878;-33.370;-70.552;2023-02-17T09:30:43;91754.03;;;20.38;51.83
17521;BME280;8878;-33.370;-70.552;2023-02-17T09:33:12;91757.56;;;20.29;52.90
17521;BME280;8878;-33.370;-70.552;2023-02-17T09:35:41;91756.00;;;20.28;52.20
17521;BME280;8878;-33.370;-70.552;2023-02-17T09:38:11;91757.16;;;20.40;52.34
17521;BME280;8878;-33.370;-70.552;2023-02-17T09:40:44;91764.06;;;20.41;52.61
17521;BME280;8878;-33.370;-70.552;2023-02-17T09:43:17;91774.91;;;20.44;52.43
17521;BME280;8878;-33.370;-70.552;2023-02-17T09:45:50;91765.63;;;20.42;51.48
17521;BME280;8878;-33.370;-70.552;2023-02-17T09:48:22;91767.31;;;20.34;51.51
17521;BME280;8878;-33.370;-70.552;2023-02-17T09:50:57;91767.66;;;20.45;51.53
17521;BME280;8878;-33.370;-70.552;2023-02-17T09:53:33;91769.03;;;20.06;51.33
17521;BME280;8878;-33.370;-70.552;2023-02-17T09:56:09;91763.34;;;20.19;50.89
17521;BME280;8878;-33.370;-70.552;2023-02-17T09:58:42;91775.63;;;20.08;51.20
17521;BME280;8878;-33.370;-70.552;2023-02-17T10:01:18;91770.97;;;20.17;50.91
17521;BME280;8878;-33.370;-70.552;2023-02-17T10:03:50;91770.97;;;20.17;51.12
17521;BME280;8878;-33.370;-70.552;2023-02-17T10:06:25;91774.06;;;20.19;50.57
17521;BME280;8878;-33.370;-70.552;2023-02-17T10:09:09;91769.50;;;20.20;50.30
17521;BME280;8878;-33.370;-70.552;2023-02-17T10:11:41;91775.41;;;20.13;50.42
17521;BME280;8878;-33.370;-70.552;2023-02-17T10:14:18;91773.66;;;20.29;50.85
17521;BME280;8878;-33.370;-70.552;2023-02-17T10:16:53;91776.66;;;20.28;51.19
17521;BME280;8878;-33.370;-70.552;2023-02-17T10:19:28;91776.19;;;20.26;51.15
17521;BME280;8878;-33.370;-70.552;2023-02-17T10:22:06;91772.56;;;20.43;51.01
17521;BME280;8878;-33.370;-70.552;2023-02-17T10:24:36;91771.84;;;20.21;49.98
17521;BME280;8878;-33.370;-70.552;2023-02-17T10:27:21;91770.03;;;19.89;50.91
17521;BME280;8878;-33.370;-70.552;2023-02-17T10:32:53;91773.59;;;20.05;50.37
17521;BME280;8878;-33.370;-70.552;2023-02-17T10:35:38;91788.81;;;20.25;50.97
17521;BME280;8878;-33.370;-70.552;2023-02-17T10:38:27;91782.78;;;20.28;51.45
17521;BME280;8878;-33.370;-70.552;2023-02-17T10:41:01;91786.25;;;20.29;50.84
17521;BME280;8878;-33.370;-70.552;2023-02-17T10:43:32;91787.47;;;20.19;50.68
17521;BME280;8878;-33.370;-70.552;2023-02-17T10:46:05;91789.91;;;20.12;50.74
17521;BME280;8878;-33.370;-70.552;2023-02-17T10:48:38;91786.81;;;20.10;50.59
17521;BME280;8878;-33.370;-70.552;2023-02-17T10:51:13;91782.44;;;20.06;50.66
17521;BME280;8878;-33.370;-70.552;2023-02-17T10:53:47;91781.69;;;20.17;50.29
17521;BME280;8878;-33.370;-70.552;2023-02-17T10:56:22;91779.16;;;20.45;49.67
17521;BME280;8878;-33.370;-70.552;2023-02-17T10:58:55;91779.25;;;20.49;50.19
17521;BME280;8878;-33.370;-70.552;2023-02-17T11:01:29;91781.94;;;20.61;50.43
17521;BME280;8878;-33.370;-70.552;2023-02-17T11:04:03;91782.41;;;20.51;49.92
17521;BME280;8878;-33.370;-70.552;2023-02-17T11:06:37;91773.44;;;20.47;49.42
17521;BME280;8878;-33.370;-70.552;2023-02-17T11:09:18;91791.88;;;20.36;49.37
17521;BME280;8878;-33.370;-70.552;2023-02-17T11:11:58;91788.09;;;20.74;49.21
17521;BME280;8878;-33.370;-70.552;2023-02-17T11:14:29;91784.59;;;20.97;47.98
17521;BME280;8878;-33.370;-70.552;2023-02-17T11:17:02;91790.16;;;21.04;48.04
17521;BME280;8878;-33.370;-70.552;2023-02-17T11:19:34;91777.22;;;20.94;48.05
17521;BME280;8878;-33.370;-70.552;2023-02-17T11:22:05;91781.25;;;21.00;48.25
17521;BME280;8878;-33.370;-70.552;2023-02-17T11:24:35;91786.97;;;20.87;48.23
17521;BME280;8878;-33.370;-70.552;2023-02-17T11:27:07;91787.09;;;20.66;48.55
17521;BME280;8878;-33.370;-70.552;2023-02-17T11:29:37;91780.13;;;21.01;47.75
17521;BME280;8878;-33.370;-70.552;2023-02-17T11:32:10;91772.25;;;21.33;48.35
17521;BME280;8878;-33.370;-70.552;2023-02-17T11:34:41;91774.91;;;21.45;47.67
17521;BME280;8878;-33.370;-70.552;2023-02-17T11:37:20;91769.47;;;21.57;46.49
17521;BME280;8878;-33.370;-70.552;2023-02-17T11:39:51;91776.47;;;21.34;46.38
17521;BME280;8878;-33.370;-70.552;2023-02-17T11:42:22;91778.84;;;21.35;46.48
17521;BME280;8878;-33.370;-70.552;2023-02-17T11:44:53;91782.59;;;21.46;46.32
17521;BME280;8878;-33.370;-70.552;2023-02-17T11:47:31;91790.44;;;21.39;46.35
17521;BME280;8878;-33.370;-70.552;2023-02-17T11:50:16;91789.44;;;21.32;46.36
17521;BME280;8878;-33.370;-70.552;2023-02-17T11:53:06;91793.03;;;21.36;46.42
17521;BME280;8878;-33.370;-70.552;2023-02-17T11:55:51;91788.75;;;20.95;47.20
17521;BME280;8878;-33.370;-70.552;2023-02-17T11:58:30;91787.94;;;21.19;47.00
17521;BME280;8878;-33.370;-70.552;2023-02-17T12:01:08;91782.94;;;20.81;48.44
17521;BME280;8878;-33.370;-70.552;2023-02-17T12:06:42;91791.97;;;21.00;47.71
17521;BME280;8878;-33.370;-70.552;2023-02-17T12:09:20;91794.00;;;20.67;48.72
17521;BME280;8878;-33.370;-70.552;2023-02-17T12:11:57;91796.22;;;20.77;48.35
17521;BME280;8878;-33.370;-70.552;2023-02-17T12:14:43;91794.47;;;20.81;48.43
17521;BME280;8878;-33.370;-70.552;2023-02-17T12:17:26;91791.50;;;21.23;47.86
17521;BME280;8878;-33.370;-70.552;2023-02-17T12:20:07;91790.88;;;21.41;47.65
17521;BME280;8878;-33.370;-70.552;2023-02-17T12:22:59;91785.91;;;21.28;48.28
17521;BME280;8878;-33.370;-70.552;2023-02-17T12:25:32;91786.88;;;21.91;46.90
17521;BME280;8878;-33.370;-70.552;2023-02-17T12:28:14;91784.31;;;21.95;46.05
17521;BME280;8878;-33.370;-70.552;2023-02-17T12:30:55;91781.91;;;21.49;46.40
17521;BME280;8878;-33.370;-70.552;2023-02-17T12:33:43;91785.97;;;21.71;45.76
17521;BME280;8878;-33.370;-70.552;2023-02-17T12:36:18;91786.09;;;21.91;47.10
17521;BME280;8878;-33.370;-70.552;2023-02-17T12:38:52;91780.59;;;21.71;46.53
17521;BME280;8878;-33.370;-70.552;2023-02-17T12:41:24;91779.97;;;21.62;46.83
17521;BME280;8878;-33.370;-70.552;2023-02-17T12:43:58;91780.41;;;21.64;46.29
17521;BME280;8878;-33.370;-70.552;2023-02-17T12:46:35;91786.66;;;21.68;45.64
17521;BME280;8878;-33.370;-70.552;2023-02-17T12:49:11;91778.81;;;21.91;45.46
17521;BME280;8878;-33.370;-70.552;2023-02-17T12:51:48;91779.09;;;21.86;45.44
17521;BME280;8878;-33.370;-70.552;2023-02-17T12:54:22;91782.97;;;21.88;46.46
17521;BME280;8878;-33.370;-70.552;2023-02-17T12:57:12;91777.31;;;22.06;45.26
17521;BME280;8878;-33.370;-70.552;2023-02-17T12:59:43;91782.38;;;22.23;45.55
17521;BME280;8878;-33.370;-70.552;2023-02-17T13:02:15;91788.69;;;22.62;44.08
17521;BME280;8878;-33.370;-70.552;2023-02-17T13:04:48;91785.50;;;22.56;44.86
17521;BME280;8878;-33.370;-70.552;2023-02-17T13:07:42;91789.47;;;22.62;44.79
17521;BME280;8878;-33.370;-70.552;2023-02-17T13:10:29;91794.00;;;22.58;43.95
17521;BME280;8878;-33.370;-70.552;2023-02-17T13:13:04;91796.59;;;22.71;43.28
17521;BME280;8878;-33.370;-70.552;2023-02-17T13:15:37;91791.22;;;22.71;43.98
17521;BME280;8878;-33.370;-70.552;2023-02-17T13:18:11;91792.00;;;22.87;44.88
17521;BME280;8878;-33.370;-70.552;2023-02-17T13:20:53;91801.19;;;23.01;43.64
17521;BME280;8878;-33.370;-70.552;2023-02-17T13:23:35;91798.38;;;23.14;42.62